Time;durP1;ratioP1;P1;durP2;ratioP2;P2;SDS_P1;SDS_P2;PMS_P1;PMS_P2;Temp;Humidity;BMP_temperature;BMP_pressure;BME280_temperature;BME280_humidity;BME280_pressure;Samples;Min_cycle;Max_cycle;Signal;HPM_P1;HPM_P2
2022/04/30 00:00:41;;;;;;;9.57;9.27;;;12.80;99.90;;;;;;6384894;22;20196;-83
2022/04/30 00:03:12;;;;;;;9.83;9.53;;;12.80;99.90;;;;;;6384735;22;20218;-82
2022/04/30 00:05:42;;;;;;;9.80;9.50;;;12.70;99.90;;;;;;6384869;22;20218;-82
2022/04/30 00:08:10;;;;;;;9.87;9.57;;;12.70;99.90;;;;;;6385862;22;20180;-82
2022/04/30 00:10:38;;;;;;;9.73;9.43;;;12.60;99.90;;;;;;6384830;22;20199;-82
2022/04/30 00:13:10;;;;;;;10.17;9.87;;;12.60;99.90;;;;;;6385695;22;20968;-83
2022/04/30 00:15:38;;;;;;;9.77;9.47;;;12.50;99.90;;;;;;6385319;22;20212;-82
2022/04/30 00:18:07;;;;;;;10.00;9.70;;;12.40;99.90;;;;;;6385409;22;20188;-82
2022/04/30 00:20:36;;;;;;;9.80;9.50;;;12.40;99.90;;;;;;6385007;22;21004;-83
2022/04/30 00:23:19;;;;;;;9.93;9.63;;;12.30;99.90;;;;;;6385005;22;20257;-82
2022/04/30 00:25:53;;;;;;;9.67;9.37;;;12.30;99.90;;;;;;6385192;22;20192;-82
2022/04/30 00:28:26;;;;;;;9.97;9.67;;;12.30;99.90;;;;;;6386644;22;20188;-82
2022/04/30 00:31:01;;;;;;;10.00;9.70;;;12.20;99.90;;;;;;6391810;22;20191;-81
2022/04/30 00:33:30;;;;;;;9.70;9.40;;;12.20;99.90;;;;;;6396748;22;20194;-83
2022/04/30 00:36:00;;;;;;;9.70;9.40;;;12.20;99.90;;;;;;6388352;22;20194;-83
2022/04/30 00:38:38;;;;;;;10.00;9.70;;;12.20;99.90;;;;;;6387615;22;20188;-83
2022/04/30 00:41:08;;;;;;;9.87;9.57;;;12.20;99.90;;;;;;6387727;22;20298;-82
2022/04/30 00:43:45;;;;;;;9.80;9.50;;;12.20;99.90;;;;;;6386305;22;20200;-81
2022/04/30 00:46:14;;;;;;;9.90;9.60;;;12.10;99.90;;;;;;6387691;22;20195;-82
2022/04/30 00:48:44;;;;;;;9.77;9.47;;;12.10;99.90;;;;;;6385159;22;20207;-82
2022/04/30 00:51:14;;;;;;;10.00;9.70;;;12.10;99.90;;;;;;6385533;22;20196;-82
2022/04/30 00:53:52;;;;;;;9.87;9.57;;;12.00;99.90;;;;;;6352675;22;20200;-81
2022/04/30 00:56:30;;;;;;;10.00;9.70;;;11.90;99.90;;;;;;6332858;22;20223;-83
2022/04/30 00:58:59;;;;;;;10.13;9.83;;;11.80;99.90;;;;;;6338728;22;20197;-84
2022/04/30 01:01:41;;;;;;;10.20;9.90;;;11.80;99.90;;;;;;6339413;22;20252;-83
2022/04/30 01:04:08;;;;;;;9.90;9.60;;;11.80;99.90;;;;;;6364432;22;20309;-82
2022/04/30 01:06:55;;;;;;;9.50;9.20;;;11.80;99.90;;;;;;6371221;22;20200;-83
2022/04/30 01:12:13;;;;;;;9.80;9.50;;;11.80;99.90;;;;;;6370376;22;20256;-83
2022/04/30 01:14:42;;;;;;;9.67;9.37;;;11.80;99.90;;;;;;6371034;22;20172;-84
2022/04/30 01:17:12;;;;;;;9.70;9.40;;;11.80;99.90;;;;;;6371803;22;20196;-82
2022/04/30 01:19:43;;;;;;;9.87;9.57;;;11.70;99.90;;;;;;6371648;22;20184;-83
2022/04/30 01:22:20;;;;;;;9.90;9.60;;;11.70;99.90;;;;;;6371282;22;20185;-83
2022/04/30 01:24:59;;;;;;;9.83;9.53;;;11.80;99.90;;;;;;6368814;22;20195;-81
2022/04/30 01:27:35;;;;;;;9.80;9.50;;;11.70;99.90;;;;;;6369769;22;20188;-83
2022/04/30 01:30:04;;;;;;;9.60;9.30;;;11.70;99.90;;;;;;6364540;22;20261;-83
2022/04/30 01:38:06;;;;;;;9.80;9.50;;;11.60;99.90;;;;;;6365714;22;20243;-83
2022/04/30 01:40:48;;;;;;;9.67;9.37;;;11.60;99.90;;;;;;6365725;22;20203;-82
2022/04/30 01:43:17;;;;;;;10.07;9.77;;;11.60;99.90;;;;;;6368372;22;20231;-83
2022/04/30 01:45:46;;;;;;;9.87;9.57;;;11.60;99.90;;;;;;6365148;22;20194;-83
2022/04/30 01:48:15;;;;;;;9.67;9.37;;;11.60;99.90;;;;;;6364528;22;20208;-83
2022/04/30 01:50:45;;;;;;;9.90;9.60;;;11.50;99.90;;;;;;6373040;22;20199;-83
2022/04/30 01:53:13;;;;;;;10.17;9.87;;;11.50;99.90;;;;;;6385770;22;20199;-84
2022/04/30 01:55:52;;;;;;;10.10;9.80;;;11.50;99.90;;;;;;6405009;22;20168;-83
2022/04/30 01:58:21;;;;;;;10.17;9.87;;;11.50;99.90;;;;;;6405535;22;20167;-83
2022/04/30 02:00:52;;;;;;;10.20;9.90;;;11.50;99.90;;;;;;6404900;22;20191;-83
2022/04/30 02:03:20;;;;;;;10.10;9.80;;;11.50;99.90;;;;;;6399439;22;20263;-82
2022/04/30 02:05:50;;;;;;;10.17;9.87;;;11.50;99.90;;;;;;6397657;22;20202;-84
2022/04/30 02:08:20;;;;;;;9.80;9.50;;;11.50;99.90;;;;;;6401265;22;20195;-84
2022/04/30 02:10:52;;;;;;;9.80;9.50;;;11.50;99.90;;;;;;6399262;22;20215;-85
2022/04/30 02:13:28;;;;;;;9.70;9.40;;;11.50;99.90;;;;;;6397743;22;20208;-84
2022/04/30 02:15:57;;;;;;;9.97;9.67;;;11.50;99.90;;;;;;6396729;22;20184;-84
2022/04/30 02:18:26;;;;;;;10.00;9.70;;;11.50;99.90;;;;;;6397547;22;20222;-84
2022/04/30 02:20:57;;;;;;;9.90;9.60;;;11.40;99.90;;;;;;6397360;22;20209;-84
2022/04/30 02:23:26;;;;;;;9.43;9.13;;;11.40;99.90;;;;;;6396858;22;20204;-84
2022/04/30 02:26:03;;;;;;;9.50;9.20;;;11.40;99.90;;;;;;6396810;22;20196;-84
2022/04/30 02:28:32;;;;;;;9.57;9.27;;;11.40;99.90;;;;;;6397082;22;20191;-85
2022/04/30 02:31:01;;;;;;;9.20;8.90;;;11.30;99.90;;;;;;6397291;22;20200;-83
2022/04/30 02:33:31;;;;;;;9.47;9.17;;;11.30;99.90;;;;;;6397463;22;20229;-85
2022/04/30 02:35:59;;;;;;;9.77;9.47;;;11.30;99.90;;;;;;6396806;22;20191;-84
2022/04/30 02:38:30;;;;;;;9.50;9.20;;;11.20;99.90;;;;;;6397060;22;20222;-84
2022/04/30 02:41:02;;;;;;;9.40;9.10;;;11.20;99.90;;;;;;6396414;22;20198;-84
2022/04/30 02:43:30;;;;;;;9.43;9.13;;;11.10;99.90;;;;;;6396094;22;20200;-84
2022/04/30 02:45:58;;;;;;;10.00;9.70;;;11.10;99.90;;;;;;6395629;22;20187;-84
2022/04/30 02:48:28;;;;;;;9.70;9.40;;;11.00;99.90;;;;;;6395910;22;20196;-84
2022/04/30 02:51:00;;;;;;;9.70;9.40;;;11.00;99.90;;;;;;6394484;22;20229;-84
2022/04/30 02:53:28;;;;;;;9.57;9.27;;;11.00;99.90;;;;;;6397350;22;20204;-84
2022/04/30 02:55:56;;;;;;;9.70;9.40;;;10.90;99.90;;;;;;6395041;22;20195;-84
2022/04/30 03:01:15;;;;;;;10.00;9.70;;;10.80;99.90;;;;;;6394706;22;20176;-84
2022/04/30 03:03:43;;;;;;;9.73;9.43;;;10.80;99.90;;;;;;6393648;22;20225;-84
2022/04/30 03:06:13;;;;;;;9.80;9.50;;;10.70;99.90;;;;;;6394219;22;20191;-83
2022/04/30 03:08:42;;;;;;;10.17;9.87;;;10.70;99.90;;;;;;6394079;22;20180;-84
2022/04/30 03:11:12;;;;;;;10.10;9.80;;;10.60;99.90;;;;;;6393669;22;20215;-84
2022/04/30 03:13:42;;;;;;;9.90;9.60;;;10.60;99.90;;;;;;6394617;22;20290;-84
2022/04/30 03:21:44;;;;;;;9.77;9.47;;;10.60;99.90;;;;;;6396396;22;20239;-84
2022/04/30 03:24:16;;;;;;;10.30;10.00;;;10.50;99.90;;;;;;6393672;22;20208;-84
2022/04/30 03:26:44;;;;;;;10.50;10.20;;;10.50;99.90;;;;;;6393693;22;20202;-84
2022/04/30 03:29:15;;;;;;;10.17;9.87;;;10.40;99.90;;;;;;6393286;22;20195;-84
2022/04/30 03:31:43;;;;;;;10.10;9.80;;;10.40;99.90;;;;;;6392784;22;20191;-83
2022/04/30 03:34:14;;;;;;;10.20;9.90;;;10.40;99.90;;;;;;6393871;22;20255;-84
2022/04/30 03:36:42;;;;;;;10.13;9.83;;;10.30;99.90;;;;;;6397067;22;20182;-84
2022/04/30 03:39:11;;;;;;;10.20;9.90;;;10.30;99.90;;;;;;6395994;22;20191;-84
2022/04/30 03:41:39;;;;;;;10.50;10.20;;;10.20;99.90;;;;;;6394027;22;20203;-84
2022/04/30 03:44:11;;;;;;;10.37;10.07;;;10.20;99.90;;;;;;6393884;22;20665;-84
2022/04/30 03:46:41;;;;;;;10.30;10.00;;;10.20;99.90;;;;;;6397723;22;20183;-84
2022/04/30 03:49:09;;;;;;;10.40;10.10;;;10.20;99.90;;;;;;6403591;22;20956;-84
2022/04/30 03:51:38;;;;;;;10.40;10.10;;;10.10;99.90;;;;;;6397824;22;20204;-84
2022/04/30 03:54:08;;;;;;;10.40;10.10;;;10.10;99.90;;;;;;6395067;22;20233;-83
2022/04/30 03:56:37;;;;;;;10.13;9.83;;;10.00;99.90;;;;;;6394204;22;20207;-84
2022/04/30 03:59:07;;;;;;;10.40;10.10;;;10.00;99.90;;;;;;6394475;22;20190;-84
2022/04/30 04:01:36;;;;;;;10.23;9.93;;;10.00;99.90;;;;;;6395222;22;20262;-84
2022/04/30 04:04:06;;;;;;;10.00;9.70;;;10.00;99.90;;;;;;6392943;22;20218;-84
2022/04/30 04:06:35;;;;;;;10.90;10.60;;;10.00;99.90;;;;;;6393939;22;20199;-83
2022/04/30 04:09:05;;;;;;;10.50;10.20;;;10.10;99.90;;;;;;6396441;22;20187;-84
2022/04/30 04:11:34;;;;;;;10.70;10.40;;;10.10;99.90;;;;;;6396558;22;20207;-84
2022/04/30 04:19:37;;;;;;;10.37;10.07;;;10.10;99.90;;;;;;6396174;22;20184;-84
2022/04/30 04:22:07;;;;;;;10.40;10.10;;;10.10;99.90;;;;;;6392335;22;20196;-84
2022/04/30 04:27:22;;;;;;;10.50;10.20;;;10.10;99.90;;;;;;6394849;22;20288;-84
2022/04/30 04:29:53;;;;;;;10.30;10.00;;;10.10;99.90;;;;;;6396551;22;20187;-82
2022/04/30 04:32:22;;;;;;;10.13;9.83;;;10.10;99.90;;;;;;6403510;22;20202;-83
2022/04/30 04:37:38;;;;;;;10.33;10.03;;;10.10;99.90;;;;;;6399503;22;20207;-84
2022/04/30 04:40:09;;;;;;;10.40;10.10;;;10.10;99.90;;;;;;6401637;22;20210;-84
2022/04/30 04:42:37;;;;;;;10.43;10.13;;;10.10;99.90;;;;;;6395360;22;20211;-84
2022/04/30 04:45:09;;;;;;;10.37;10.07;;;10.10;99.90;;;;;;6395367;22;20211;-84
2022/04/30 04:47:39;;;;;;;10.70;10.40;;;10.10;99.90;;;;;;6395155;22;20210;-84
2022/04/30 04:50:17;;;;;;;10.50;10.20;;;10.10;99.90;;;;;;6393814;22;20214;-85
2022/04/30 04:52:46;;;;;;;10.30;10.00;;;10.20;99.90;;;;;;6393630;22;20200;-83
2022/04/30 04:55:15;;;;;;;10.60;10.30;;;10.20;99.90;;;;;;6392161;22;20192;-84
2022/04/30 04:57:43;;;;;;;10.53;10.23;;;10.20;99.90;;;;;;6393482;22;20260;-84
2022/04/30 05:00:12;;;;;;;10.90;10.60;;;10.30;99.90;;;;;;6393847;22;20195;-84
2022/04/30 05:02:43;;;;;;;10.47;10.17;;;10.30;99.90;;;;;;6393583;22;20207;-84
2022/04/30 05:05:14;;;;;;;10.40;10.10;;;10.30;99.90;;;;;;6393336;22;20196;-82
2022/04/30 05:07:44;;;;;;;10.57;10.27;;;10.40;99.90;;;;;;6393679;22;20192;-84
2022/04/30 05:10:12;;;;;;;10.37;10.07;;;10.40;99.90;;;;;;6394581;22;20247;-84
2022/04/30 05:12:40;;;;;;;10.57;10.27;;;10.50;99.90;;;;;;6393700;22;20195;-84
2022/04/30 05:15:09;;;;;;;10.20;9.90;;;10.50;99.90;;;;;;6394196;22;20196;-84
2022/04/30 05:17:38;;;;;;;10.10;9.80;;;10.50;99.90;;;;;;6394266;22;20241;-84
2022/04/30 05:20:08;;;;;;;10.37;10.07;;;10.60;99.90;;;;;;6394253;22;20199;-84
2022/04/30 05:22:46;;;;;;;10.50;10.20;;;10.60;99.90;;;;;;6394757;22;20199;-84
2022/04/30 05:25:15;;;;;;;10.13;9.83;;;10.70;99.90;;;;;;6392530;22;20198;-84
2022/04/30 05:27:45;;;;;;;10.23;9.93;;;10.70;99.90;;;;;;6394441;22;20183;-84
2022/04/30 05:30:14;;;;;;;10.00;9.70;;;10.70;99.90;;;;;;6393823;22;20221;-82
2022/04/30 05:32:43;;;;;;;10.17;9.87;;;10.70;99.90;;;;;;6394163;22;20208;-82
2022/04/30 05:35:11;;;;;;;10.20;9.90;;;10.70;99.90;;;;;;6393760;22;20195;-83
2022/04/30 05:37:40;;;;;;;10.13;9.83;;;10.80;99.90;;;;;;6395309;22;20164;-83
2022/04/30 05:40:10;;;;;;;9.90;9.60;;;10.80;99.90;;;;;;6393800;22;20194;-83
2022/04/30 05:42:37;;;;;;;9.97;9.67;;;10.80;99.90;;;;;;6398339;22;20234;-83
2022/04/30 05:45:07;;;;;;;9.97;9.67;;;10.90;99.90;;;;;;6403324;22;20201;-82
2022/04/30 05:47:34;;;;;;;10.20;9.90;;;11.00;99.90;;;;;;6403687;22;20237;-82
2022/04/30 05:50:02;;;;;;;10.30;10.00;;;11.00;99.90;;;;;;6402907;22;20183;-82
2022/04/30 05:52:30;;;;;;;10.27;9.97;;;11.10;99.90;;;;;;6401301;22;20199;-82
2022/04/30 05:55:00;;;;;;;10.27;9.97;;;11.00;99.90;;;;;;6398456;22;20187;-83
2022/04/30 05:57:27;;;;;;;10.30;10.00;;;11.10;99.90;;;;;;6397050;22;20198;-82
2022/04/30 05:59:55;;;;;;;10.60;10.30;;;11.10;99.90;;;;;;6397404;22;20203;-82
2022/04/30 06:02:23;;;;;;;10.27;9.97;;;11.00;99.90;;;;;;6390350;22;20214;-83
2022/04/30 06:04:51;;;;;;;10.30;10.00;;;10.90;99.90;;;;;;6390647;22;20225;-82
2022/04/30 06:07:19;;;;;;;9.80;9.50;;;10.90;99.90;;;;;;6392089;22;20621;-83
2022/04/30 06:09:47;;;;;;;9.67;9.37;;;11.00;99.90;;;;;;6392367;22;20206;-82
2022/04/30 06:12:16;;;;;;;9.47;9.17;;;11.10;99.90;;;;;;6391375;22;20260;-82
2022/04/30 06:14:45;;;;;;;9.50;9.20;;;11.20;99.90;;;;;;6392357;22;20188;-83
2022/04/30 06:17:12;;;;;;;9.80;9.50;;;11.40;99.90;;;;;;6392290;22;20269;-82
2022/04/30 06:19:40;;;;;;;9.83;9.53;;;11.50;99.90;;;;;;6400489;22;20199;-82
2022/04/30 06:22:08;;;;;;;10.10;9.80;;;11.60;99.90;;;;;;6404554;22;20198;-81
2022/04/30 06:24:36;;;;;;;10.20;9.90;;;11.70;99.90;;;;;;6403446;22;20192;-82
2022/04/30 06:27:05;;;;;;;10.20;9.90;;;11.90;99.90;;;;;;6404049;22;20167;-81
2022/04/30 06:29:35;;;;;;;10.30;10.00;;;12.00;99.90;;;;;;6404684;22;20184;-81
2022/04/30 06:32:02;;;;;;;9.97;9.67;;;12.20;99.90;;;;;;6405081;22;20207;-81
2022/04/30 06:34:30;;;;;;;10.03;9.73;;;12.20;99.90;;;;;;6404272;22;20195;-81
2022/04/30 06:36:58;;;;;;;10.00;9.70;;;12.20;99.90;;;;;;6399399;22;20190;-82
2022/04/30 06:39:26;;;;;;;9.93;9.63;;;12.30;99.90;;;;;;6400175;22;20198;-82
2022/04/30 06:41:53;;;;;;;9.90;9.60;;;12.40;99.90;;;;;;6397983;22;20196;-82
2022/04/30 06:44:21;;;;;;;10.13;9.83;;;12.60;99.90;;;;;;6393888;22;20199;-82
2022/04/30 06:46:50;;;;;;;9.90;9.60;;;12.60;99.90;;;;;;6393208;22;20213;-83
2022/04/30 06:49:18;;;;;;;10.10;9.80;;;12.80;99.90;;;;;;6392395;22;20401;-82
2022/04/30 06:51:47;;;;;;;10.00;9.70;;;13.00;99.90;;;;;;6391886;22;20209;-83
2022/04/30 06:57:33;;;;;;;10.10;9.80;;;13.20;99.90;;;;;;6356544;22;20184;-83
2022/04/30 07:54:58;;;;;;;9.98;9.68;;;15.10;99.90;;;;;;6212112;22;20205;-81
2022/04/30 08:05:17;;;;;;;9.80;9.50;;;15.30;99.90;;;;;;6285659;22;20224;-81
2022/04/30 08:09:01;;;;;;;;;;;;;;;;;;;;;
2022/04/30 08:12:14;;;;;;;9.93;9.63;;;15.60;99.90;;;;;;6211634;22;20201;-81
2022/04/30 08:15:57;;;;;;;9.95;9.65;;;15.90;99.90;;;;;;6285677;22;20209;-82
2022/04/30 08:29:29;;;;;;;10.40;10.10;;;16.90;99.90;;;;;;6051945;23;20198;-83
2022/04/30 08:47:17;;;;;;;10.50;10.20;;;17.20;99.90;;;;;;6043204;23;20223;-82
2022/04/30 09:08:56;;;;;;;10.85;10.55;;;18.30;99.90;;;;;;6150493;22;20207;-82
2022/04/30 09:29:53;;;;;;;10.63;10.32;;;19.00;99.90;;;;;;6221547;22;20208;-81
2022/04/30 09:33:41;;;;;;;10.80;10.50;;;18.50;99.90;;;;;;6198869;23;20259;-81
2022/04/30 09:57:00;;;;;;;10.52;10.23;;;19.80;99.90;;;;;;6194673;23;20202;-82
2022/04/30 10:30:44;;;;;;;;;;;;;;;;;;;;;
2022/04/30 10:54:36;;;;;;;10.80;10.50;;;18.90;99.90;;;;;;6299361;22;20220;-80
2022/04/30 10:57:06;;;;;;;10.48;10.18;;;18.80;99.90;;;;;;6296654;22;20268;-80
2022/04/30 10:59:34;;;;;;;10.50;10.20;;;18.90;99.90;;;;;;6298092;22;20220;-80
2022/04/30 11:02:14;;;;;;;10.85;10.55;;;18.90;99.90;;;;;;6295182;22;20201;-79
2022/04/30 11:04:52;;;;;;;10.40;10.10;;;19.00;99.90;;;;;;6291506;22;20203;-78
2022/04/30 11:07:20;;;;;;;10.80;10.50;;;19.00;99.90;;;;;;6292096;22;20872;-78
2022/04/30 11:09:48;;;;;;;10.75;10.45;;;18.90;99.90;;;;;;6293133;22;20202;-78
2022/04/30 11:12:17;;;;;;;10.50;10.20;;;18.80;99.90;;;;;;6291809;22;20252;-79
2022/04/30 11:14:56;;;;;;;10.52;10.23;;;18.70;99.90;;;;;;6300124;22;20302;-80
2022/04/30 11:17:26;;;;;;;10.45;10.15;;;18.80;99.90;;;;;;6311312;22;20189;-78
2022/04/30 11:19:57;;;;;;;10.50;10.20;;;19.00;99.90;;;;;;6311600;22;20200;-78
2022/04/30 11:22:25;;;;;;;10.50;10.20;;;19.00;99.90;;;;;;6311073;22;20184;-79
2022/04/30 11:25:05;;;;;;;10.05;9.75;;;18.90;99.90;;;;;;6310111;22;20198;-80
2022/04/30 11:27:33;;;;;;;9.98;9.68;;;19.00;99.90;;;;;;6305868;22;20204;-83
2022/04/30 11:30:12;;;;;;;10.00;9.70;;;19.00;99.90;;;;;;6297983;22;20228;-81
2022/04/30 11:32:40;;;;;;;10.07;9.77;;;19.10;99.90;;;;;;6298852;22;20197;-82
2022/04/30 11:35:30;;;;;;;10.25;9.95;;;19.20;99.90;;;;;;6298454;22;20197;-81
2022/04/30 11:37:58;;;;;;;10.10;9.80;;;19.30;99.90;;;;;;6298340;22;20194;-81
2022/04/30 11:40:27;;;;;;;10.23;9.93;;;19.30;99.90;;;;;;6297538;22;20196;-83
2022/04/30 11:42:59;;;;;;;10.10;9.80;;;19.50;99.90;;;;;;6298291;22;20241;-82
2022/04/30 11:45:36;;;;;;;10.15;9.85;;;19.60;99.90;;;;;;6298757;22;20276;-82
2022/04/30 11:48:05;;;;;;;10.13;9.82;;;19.80;99.90;;;;;;6297839;22;20220;-82
2022/04/30 11:50:45;;;;;;;10.00;9.70;;;20.00;99.90;;;;;;6297326;22;20249;-82
2022/04/30 11:53:14;;;;;;;10.23;9.93;;;20.10;99.90;;;;;;6296972;22;20295;-82
2022/04/30 11:55:42;;;;;;;10.30;10.00;;;20.00;99.90;;;;;;6298066;22;20205;-82
2022/04/30 11:58:10;;;;;;;10.32;10.02;;;20.10;99.90;;;;;;6297360;22;20193;-82
2022/04/30 12:00:40;;;;;;;10.30;10.00;;;20.00;99.90;;;;;;6297142;22;20224;-82
2022/04/30 12:03:09;;;;;;;10.20;9.90;;;19.70;99.90;;;;;;6298394;22;20205;-82
2022/04/30 12:05:50;;;;;;;10.20;9.90;;;19.50;99.90;;;;;;6297110;22;20201;-82
2022/04/30 12:08:20;;;;;;;10.20;9.90;;;19.30;99.90;;;;;;6297832;22;20190;-82
2022/04/30 12:10:57;;;;;;;10.27;9.98;;;19.20;99.90;;;;;;6297831;22;20241;-82
2022/04/30 12:13:34;;;;;;;10.10;9.80;;;19.10;99.90;;;;;;6296619;22;20201;-82
2022/04/30 12:16:21;;;;;;;9.90;9.60;;;19.10;99.90;;;;;;6296633;22;20238;-83
2022/04/30 12:24:43;;;;;;;9.93;9.63;;;18.30;99.90;;;;;;6297062;22;20193;-83
2022/04/30 12:27:29;;;;;;;10.20;9.90;;;18.00;99.90;;;;;;6295943;22;20891;-83
2022/04/30 12:30:17;;;;;;;10.00;9.70;;;18.00;99.90;;;;;;6296433;22;20194;-82
2022/04/30 12:32:54;;;;;;;10.05;9.75;;;18.00;99.90;;;;;;6296338;22;20194;-83
2022/04/30 12:35:33;;;;;;;10.15;9.85;;;17.90;99.90;;;;;;6298099;22;20193;-82
2022/04/30 12:38:12;;;;;;;10.20;9.90;;;17.70;99.90;;;;;;6298334;22;20208;-82
2022/04/30 12:40:43;;;;;;;10.13;9.82;;;17.50;99.90;;;;;;6298694;22;20247;-82
2022/04/30 12:43:12;;;;;;;10.20;9.90;;;17.30;99.90;;;;;;6296552;22;20236;-82
2022/04/30 12:45:48;;;;;;;9.95;9.65;;;17.20;99.90;;;;;;6296801;22;20202;-82
2022/04/30 12:48:17;;;;;;;10.18;9.88;;;17.10;99.90;;;;;;6296851;22;20280;-81
2022/04/30 12:50:48;;;;;;;10.32;10.02;;;16.90;99.90;;;;;;6296568;22;20208;-81
2022/04/30 12:53:17;;;;;;;10.32;10.02;;;16.80;99.90;;;;;;6294345;22;20209;-84
2022/04/30 12:55:45;;;;;;;10.40;10.10;;;16.60;99.90;;;;;;6293767;22;20197;-84
2022/04/30 12:58:14;;;;;;;10.05;9.75;;;16.50;99.90;;;;;;6291920;22;20197;-83
2022/04/30 13:00:45;;;;;;;10.07;9.77;;;16.30;99.90;;;;;;6292187;22;20196;-84
2022/04/30 13:03:14;;;;;;;10.23;9.93;;;15.90;99.90;;;;;;6292889;22;20200;-83
2022/04/30 13:05:45;;;;;;;10.30;10.00;;;15.50;99.90;;;;;;6296090;22;20207;-83
2022/04/30 13:08:13;;;;;;;9.63;9.32;;;15.20;99.90;;;;;;6298504;22;20189;-83
2022/04/30 13:13:35;;;;;;;9.90;9.60;;;14.60;99.90;;;;;;6289023;22;20658;-83
2022/04/30 13:16:07;;;;;;;9.90;9.60;;;14.20;99.90;;;;;;6289129;22;20227;-83
2022/04/30 13:18:36;;;;;;;9.77;9.47;;;13.80;99.90;;;;;;6290274;22;20248;-83
2022/04/30 13:21:07;;;;;;;10.10;9.80;;;13.40;99.90;;;;;;6289152;22;20201;-83
2022/04/30 13:23:36;;;;;;;10.00;9.70;;;13.20;99.90;;;;;;6289267;22;20232;-84
2022/04/30 13:26:11;;;;;;;10.33;10.03;;;13.00;99.90;;;;;;6294405;22;20186;-83
2022/04/30 13:28:39;;;;;;;10.53;10.23;;;12.90;99.90;;;;;;6295385;22;20201;-81
2022/04/30 13:31:07;;;;;;;10.30;10.00;;;12.60;99.90;;;;;;6292476;22;20194;-82
2022/04/30 13:33:34;;;;;;;10.60;10.30;;;12.50;99.90;;;;;;6289701;22;20201;-82
2022/04/30 13:36:04;;;;;;;10.53;10.23;;;12.40;99.90;;;;;;6288818;22;20198;-82
2022/04/30 13:38:34;;;;;;;10.20;9.90;;;12.30;99.90;;;;;;6290729;22;20646;-82
2022/04/30 13:41:03;;;;;;;10.20;9.90;;;12.40;99.90;;;;;;6302168;22;20253;-82
2022/04/30 13:43:41;;;;;;;10.30;10.00;;;12.50;99.90;;;;;;6294141;22;20213;-83
2022/04/30 13:46:11;;;;;;;10.10;9.80;;;12.60;99.90;;;;;;6292991;22;20193;-82
2022/04/30 13:48:40;;;;;;;10.50;10.20;;;12.70;99.90;;;;;;6292871;22;20212;-83
2022/04/30 13:51:08;;;;;;;10.77;10.47;;;12.80;99.90;;;;;;6292873;22;20244;-83
2022/04/30 13:53:39;;;;;;;10.33;10.03;;;12.80;99.90;;;;;;6290454;22;20694;-83
2022/04/30 13:56:09;;;;;;;10.60;10.30;;;12.90;99.90;;;;;;6290016;22;20221;-82
2022/04/30 13:58:41;;;;;;;10.13;9.83;;;13.00;99.90;;;;;;6290258;22;20193;-82
2022/04/30 14:01:08;;;;;;;9.90;9.60;;;12.90;99.90;;;;;;6289748;22;20267;-83
2022/04/30 14:03:37;;;;;;;10.27;9.97;;;12.90;99.90;;;;;;6289909;22;20204;-83
2022/04/30 14:06:06;;;;;;;10.10;9.80;;;12.80;99.90;;;;;;6290163;22;20247;-83
2022/04/30 14:08:34;;;;;;;10.60;10.30;;;12.80;99.90;;;;;;6290731;22;20197;-83
2022/04/30 14:11:05;;;;;;;10.17;9.87;;;12.80;99.90;;;;;;6289609;22;20255;-83
2022/04/30 14:16:24;;;;;;;9.70;9.40;;;12.40;99.90;;;;;;6292937;22;20189;-82
2022/04/30 14:18:52;;;;;;;9.73;9.43;;;12.40;99.90;;;;;;6292527;22;20189;-83
2022/04/30 14:21:21;;;;;;;9.70;9.40;;;12.30;99.90;;;;;;6291389;22;20198;-84
2022/04/30 14:23:50;;;;;;;9.90;9.60;;;12.30;99.90;;;;;;6291644;22;20197;-83
2022/04/30 14:26:18;;;;;;;10.00;9.70;;;12.30;99.90;;;;;;6298646;22;20205;-83
2022/04/30 14:28:51;;;;;;;9.90;9.60;;;12.30;99.90;;;;;;6298642;22;20205;-83
2022/04/30 14:31:28;;;;;;;10.00;9.70;;;12.30;99.90;;;;;;6300455;22;20224;-82
2022/04/30 14:33:57;;;;;;;9.83;9.53;;;12.40;99.90;;;;;;6297435;22;20213;-83
2022/04/30 14:36:26;;;;;;;9.80;9.50;;;12.50;99.90;;;;;;6296975;22;20190;-82
2022/04/30 14:38:56;;;;;;;9.83;9.53;;;12.60;99.90;;;;;;6293683;22;20220;-83
2022/04/30 14:41:25;;;;;;;9.47;9.17;;;12.80;99.90;;;;;;6291905;22;20194;-83
2022/04/30 14:43:55;;;;;;;9.73;9.43;;;13.00;99.90;;;;;;6324156;22;20201;-83
2022/04/30 14:46:26;;;;;;;9.63;9.33;;;13.10;99.90;;;;;;6323775;22;20208;-83
2022/04/30 14:48:54;;;;;;;9.60;9.30;;;13.30;99.90;;;;;;6323612;22;20199;-83
2022/04/30 14:51:23;;;;;;;9.20;8.90;;;13.50;99.90;;;;;;6322638;22;20192;-83
2022/04/30 14:53:52;;;;;;;9.70;9.40;;;13.70;99.90;;;;;;6321713;22;20213;-83
2022/04/30 14:56:22;;;;;;;9.63;9.33;;;13.90;99.90;;;;;;6321517;22;20201;-83
2022/04/30 14:58:51;;;;;;;9.70;9.40;;;14.00;99.90;;;;;;6321105;22;20189;-83
2022/04/30 15:01:20;;;;;;;9.47;9.17;;;14.20;99.90;;;;;;6321162;22;20193;-83
2022/04/30 15:03:52;;;;;;;9.90;9.60;;;14.30;99.90;;;;;;6321701;22;20212;-83
2022/04/30 15:06:20;;;;;;;9.65;9.35;;;14.50;99.90;;;;;;6321157;22;20197;-83
2022/04/30 15:08:49;;;;;;;9.30;9.00;;;14.60;99.90;;;;;;6322084;22;20193;-83
2022/04/30 15:11:18;;;;;;;9.35;9.05;;;14.70;99.90;;;;;;6323978;22;20212;-82
2022/04/30 15:13:46;;;;;;;9.35;9.05;;;14.80;99.90;;;;;;6328123;22;20231;-82
2022/04/30 15:16:17;;;;;;;9.52;9.23;;;15.00;99.90;;;;;;6329680;22;20193;-83
2022/04/30 15:18:47;;;;;;;9.40;9.10;;;15.20;99.90;;;;;;6329351;22;21010;-82
2022/04/30 15:21:18;;;;;;;9.30;9.00;;;15.40;99.90;;;;;;6325862;22;20193;-82
2022/04/30 15:23:46;;;;;;;9.70;9.40;;;15.70;99.90;;;;;;6323232;22;20205;-83
2022/04/30 15:26:16;;;;;;;9.77;9.48;;;16.00;99.90;;;;;;6321951;22;20195;-83
2022/04/30 15:28:45;;;;;;;10.18;9.88;;;16.10;99.90;;;;;;6321360;22;20196;-82
2022/04/30 15:31:14;;;;;;;10.10;9.80;;;16.20;99.90;;;;;;6321194;22;20272;-82
2022/04/30 15:33:43;;;;;;;10.05;9.75;;;16.30;99.90;;;;;;6322986;22;20200;-83
2022/04/30 15:36:13;;;;;;;9.90;9.60;;;16.40;99.90;;;;;;6325615;22;20247;-83
2022/04/30 15:38:44;;;;;;;10.10;9.80;;;16.40;99.90;;;;;;6330618;22;20254;-83
2022/04/30 15:41:14;;;;;;;10.13;9.82;;;16.40;99.90;;;;;;6324846;22;20193;-83
2022/04/30 15:43:43;;;;;;;9.90;9.60;;;16.40;99.90;;;;;;6322836;22;20227;-83
2022/04/30 15:46:11;;;;;;;10.13;9.82;;;16.40;99.90;;;;;;6322457;22;20197;-83
2022/04/30 15:51:32;;;;;;;9.82;9.52;;;16.60;99.90;;;;;;6322419;22;20173;-83
2022/04/30 15:54:01;;;;;;;9.73;9.43;;;16.70;99.90;;;;;;6321539;22;20228;-83
2022/04/30 15:56:32;;;;;;;10.20;9.90;;;16.70;99.90;;;;;;6321504;22;20208;-82
2022/04/30 15:59:00;;;;;;;9.90;9.60;;;16.60;99.90;;;;;;6321521;22;20193;-82
2022/04/30 16:01:29;;;;;;;10.10;9.80;;;16.20;99.90;;;;;;6322320;22;20193;-83
2022/04/30 16:03:57;;;;;;;10.10;9.80;;;16.00;99.90;;;;;;6322561;22;20197;-83
2022/04/30 16:06:25;;;;;;;10.07;9.77;;;15.80;99.90;;;;;;6323020;22;20209;-83
2022/04/30 16:08:55;;;;;;;9.90;9.60;;;15.80;99.90;;;;;;6322361;22;20197;-83
2022/04/30 16:11:27;;;;;;;9.80;9.50;;;15.80;99.90;;;;;;6326996;22;20197;-83
2022/04/30 16:13:55;;;;;;;9.57;9.27;;;15.80;99.90;;;;;;6339014;22;20271;-83
2022/04/30 16:16:23;;;;;;;9.80;9.50;;;15.90;99.90;;;;;;6334190;22;20197;-83
2022/04/30 16:18:52;;;;;;;9.70;9.40;;;15.90;99.90;;;;;;6325577;22;20193;-83
2022/04/30 16:21:20;;;;;;;9.60;9.30;;;16.00;99.90;;;;;;6325530;22;20197;-83
2022/04/30 16:23:54;;;;;;;9.75;9.45;;;15.90;99.90;;;;;;6323269;22;20209;-83
2022/04/30 16:26:23;;;;;;;9.90;9.60;;;15.90;99.90;;;;;;6323177;22;20185;-83
2022/04/30 16:28:51;;;;;;;9.88;9.57;;;15.80;99.90;;;;;;6323152;22;20216;-83
2022/04/30 16:31:20;;;;;;;9.80;9.50;;;15.80;99.90;;;;;;6323062;22;20189;-83
2022/04/30 16:33:49;;;;;;;9.80;9.50;;;15.80;99.90;;;;;;6323767;22;20200;-83
2022/04/30 16:36:19;;;;;;;9.90;9.60;;;15.80;99.90;;;;;;6323231;22;20201;-83
2022/04/30 16:38:47;;;;;;;10.07;9.77;;;15.70;99.90;;;;;;6324082;22;20193;-83
2022/04/30 16:41:18;;;;;;;10.27;9.98;;;15.50;99.90;;;;;;6322660;22;20209;-83
2022/04/30 16:43:49;;;;;;;10.30;10.00;;;15.30;99.90;;;;;;6323230;22;20205;-83
2022/04/30 16:46:17;;;;;;;10.20;9.90;;;15.20;99.90;;;;;;6323296;22;20193;-83
2022/04/30 16:48:46;;;;;;;10.20;9.90;;;15.10;99.90;;;;;;6323793;22;20197;-82
2022/04/30 16:54:02;;;;;;;10.00;9.70;;;14.80;99.90;;;;;;6330056;22;20204;-82
2022/04/30 16:59:18;;;;;;;10.00;9.70;;;14.70;99.90;;;;;;6323223;22;20201;-82
2022/04/30 17:01:49;;;;;;;10.00;9.70;;;14.70;99.90;;;;;;6323395;22;20189;-82
2022/04/30 17:04:18;;;;;;;9.60;9.30;;;14.80;99.90;;;;;;6322794;22;20247;-83
2022/04/30 17:06:47;;;;;;;9.50;9.20;;;14.80;99.90;;;;;;6328507;22;20197;-83
2022/04/30 17:09:16;;;;;;;10.00;9.70;;;14.70;99.90;;;;;;6326234;22;20197;-82
2022/04/30 17:11:46;;;;;;;9.45;9.15;;;14.60;99.90;;;;;;6325912;22;20193;-82